Time;durP1;ratioP1;P1;durP2;ratioP2;P2;SDS_P1;SDS_P2;PMS_P1;PMS_P2;Temp;Humidity;BMP_temperature;BMP_pressure;BME280_temperature;BME280_humidity;BME280_pressure;Samples;Min_cycle;Max_cycle;Signal;HPM_P1;HPM_P2
2023/07/22 00:00:49;;;;;;;3.42;3.15;;;17.30;99.90;;;;;;5009784;28;20022;-77
2023/07/22 00:03:15;;;;;;;2.90;2.70;;;17.20;99.90;;;;;;4998563;28;20021;-78
2023/07/22 00:05:41;;;;;;;3.63;3.33;;;17.20;99.90;;;;;;5008962;28;20070;-79
2023/07/22 00:08:07;;;;;;;4.05;3.75;;;17.20;99.90;;;;;;5005977;28;20051;-77
2023/07/22 00:10:32;;;;;;;4.60;4.20;;;17.20;99.90;;;;;;5003146;28;20134;-78
2023/07/22 00:12:58;;;;;;;4.35;3.95;;;17.10;99.90;;;;;;4998513;28;20030;-77
2023/07/22 00:15:25;;;;;;;4.90;4.50;;;17.10;99.90;;;;;;4998767;28;20091;-77
2023/07/22 00:17:50;;;;;;;5.53;4.13;;;16.90;99.90;;;;;;5002603;28;20034;-79
2023/07/22 00:20:16;;;;;;;5.70;5.05;;;16.90;99.90;;;;;;5009554;28;20022;-79
2023/07/22 00:22:42;;;;;;;4.93;4.53;;;16.80;99.90;;;;;;4998839;28;20026;-79
2023/07/22 00:25:10;;;;;;;6.30;5.70;;;16.70;99.90;;;;;;5007756;28;20068;-78
2023/07/22 00:27:41;;;;;;;5.72;5.22;;;16.60;99.90;;;;;;5004616;28;20022;-78
2023/07/22 00:30:07;;;;;;;6.97;5.90;;;16.60;99.90;;;;;;4999868;28;20022;-78
2023/07/22 00:32:33;;;;;;;7.05;5.30;;;16.50;99.90;;;;;;5010423;28;20049;-78
2023/07/22 00:34:58;;;;;;;5.43;5.03;;;16.50;99.90;;;;;;5010388;28;20045;-78
2023/07/22 00:37:25;;;;;;;6.75;6.05;;;16.50;99.90;;;;;;4999709;28;20500;-78
2023/07/22 00:39:51;;;;;;;6.50;5.90;;;16.50;99.90;;;;;;5000250;28;20026;-78
2023/07/22 00:42:16;;;;;;;6.80;5.38;;;16.50;99.90;;;;;;4999393;28;20038;-78
2023/07/22 00:44:42;;;;;;;6.55;5.78;;;16.40;99.90;;;;;;5001990;28;20057;-78
2023/07/22 00:47:08;;;;;;;7.07;6.32;;;16.30;99.90;;;;;;4997975;28;20023;-78
2023/07/22 00:49:35;;;;;;;7.75;6.57;;;16.30;99.90;;;;;;5005725;28;20053;-78
2023/07/22 00:52:02;;;;;;;9.07;6.90;;;16.30;99.90;;;;;;5007565;28;20029;-78
2023/07/22 00:54:28;;;;;;;7.40;6.47;;;16.20;99.90;;;;;;5010307;28;20086;-78
2023/07/22 00:56:55;;;;;;;7.00;6.30;;;16.20;99.90;;;;;;5007505;28;20021;-77
2023/07/22 00:59:21;;;;;;;6.72;5.97;;;16.20;99.90;;;;;;5010264;28;20121;-77
2023/07/22 01:01:47;;;;;;;7.05;5.57;;;16.10;99.90;;;;;;5007276;28;20073;-77
2023/07/22 01:04:14;;;;;;;6.72;6.13;;;16.10;99.90;;;;;;5008695;28;20032;-77
2023/07/22 01:06:40;;;;;;;6.07;5.47;;;16.10;99.90;;;;;;5001476;28;20026;-77
2023/07/22 01:09:09;;;;;;;7.63;6.07;;;16.10;99.90;;;;;;5000946;28;20427;-79
2023/07/22 01:11:35;;;;;;;5.78;5.07;;;16.00;99.90;;;;;;5000509;28;20026;-79
2023/07/22 01:14:01;;;;;;;5.70;5.10;;;16.00;99.90;;;;;;5005024;28;20060;-77
2023/07/22 01:16:28;;;;;;;5.95;5.30;;;15.90;99.90;;;;;;5007097;28;20030;-78
2023/07/22 01:18:54;;;;;;;5.88;5.28;;;15.90;99.90;;;;;;5008618;28;20029;-78
2023/07/22 01:21:24;;;;;;;6.38;5.40;;;15.80;99.90;;;;;;5004881;28;20030;-77
2023/07/22 01:23:50;;;;;;;9.07;5.22;;;15.80;99.90;;;;;;4999633;28;20034;-78
2023/07/22 01:26:16;;;;;;;6.65;5.93;;;15.70;99.90;;;;;;5001522;28;20057;-78
2023/07/22 01:28:43;;;;;;;6.20;5.32;;;15.70;99.90;;;;;;4998328;28;20549;-77
2023/07/22 01:31:08;;;;;;;5.65;5.15;;;15.60;99.90;;;;;;5003913;28;20030;-78
2023/07/22 01:33:34;;;;;;;7.35;5.60;;;15.60;99.90;;;;;;5006888;28;20498;-79
2023/07/22 01:36:00;;;;;;;7.35;5.25;;;15.60;99.90;;;;;;5009963;28;20122;-78
2023/07/22 01:38:26;;;;;;;6.35;5.78;;;15.60;99.90;;;;;;5009312;28;20428;-79
2023/07/22 01:40:51;;;;;;;9.45;5.90;;;15.60;99.90;;;;;;5008466;28;20018;-79
2023/07/22 01:43:17;;;;;;;5.72;5.22;;;15.70;99.90;;;;;;5006611;28;20042;-79
2023/07/22 01:45:42;;;;;;;7.50;6.28;;;15.70;99.90;;;;;;5008434;28;20180;-79
2023/07/22 01:48:08;;;;;;;6.85;6.10;;;15.70;99.90;;;;;;5007782;28;20022;-78
2023/07/22 01:50:34;;;;;;;7.60;6.72;;;15.70;99.90;;;;;;5006088;28;20133;-78
2023/07/22 01:53:00;;;;;;;7.68;6.97;;;15.70;99.90;;;;;;4997101;28;20030;-78
2023/07/22 01:55:25;;;;;;;8.68;6.70;;;15.70;99.90;;;;;;4998561;28;20042;-78
2023/07/22 01:57:51;;;;;;;10.40;7.13;;;15.80;99.90;;;;;;5000788;28;20097;-79
2023/07/22 02:00:17;;;;;;;9.65;7.22;;;15.80;99.90;;;;;;4999231;28;20083;-78
2023/07/22 02:02:43;;;;;;;10.10;7.00;;;15.80;99.90;;;;;;5008399;28;20133;-78
2023/07/22 02:05:12;;;;;;;6.85;6.25;;;15.80;99.90;;;;;;5007916;28;20071;-79
2023/07/22 02:07:39;;;;;;;8.05;7.10;;;15.70;99.90;;;;;;5007321;28;20018;-78
2023/07/22 02:10:05;;;;;;;9.35;7.70;;;15.70;99.90;;;;;;5007842;28;20026;-78
2023/07/22 02:12:31;;;;;;;7.90;7.10;;;15.70;99.90;;;;;;5008963;28;20469;-77
2023/07/22 02:14:56;;;;;;;8.15;7.35;;;15.70;99.90;;;;;;5008105;28;20048;-78
2023/07/22 02:17:23;;;;;;;7.25;6.60;;;15.60;99.90;;;;;;5011215;28;20030;-78
2023/07/22 02:19:49;;;;;;;8.25;7.10;;;15.60;99.90;;;;;;5010837;28;20352;-78
2023/07/22 02:22:15;;;;;;;9.27;7.78;;;15.60;99.90;;;;;;5004937;28;20113;-78
2023/07/22 02:24:40;;;;;;;7.70;6.65;;;15.60;99.90;;;;;;5002579;28;20101;-78
2023/07/22 02:27:08;;;;;;;7.88;7.18;;;15.50;99.90;;;;;;5003185;28;20026;-79
2023/07/22 02:29:34;;;;;;;8.00;7.20;;;15.50;99.90;;;;;;5005281;28;20022;-78
2023/07/22 02:31:59;;;;;;;11.40;7.38;;;15.40;99.90;;;;;;4994914;28;20018;-79
2023/07/22 02:34:25;;;;;;;7.20;6.45;;;15.40;99.90;;;;;;5009553;28;20045;-78
2023/07/22 02:36:51;;;;;;;9.48;7.10;;;15.40;99.90;;;;;;5011064;28;20014;-78
2023/07/22 02:39:16;;;;;;;7.15;6.55;;;15.40;99.90;;;;;;5011334;28;20022;-78
2023/07/22 02:41:42;;;;;;;9.07;7.07;;;15.30;99.90;;;;;;5012441;28;20037;-78
2023/07/22 02:44:08;;;;;;;7.47;6.68;;;15.30;99.90;;;;;;5010700;28;20448;-78
2023/07/22 02:46:33;;;;;;;7.82;6.93;;;15.20;99.90;;;;;;5012273;28;20050;-77
2023/07/22 02:48:59;;;;;;;7.10;6.28;;;15.20;99.90;;;;;;5008603;28;20087;-78
2023/07/22 02:51:24;;;;;;;7.93;6.53;;;15.20;99.90;;;;;;5009953;28;20019;-78
2023/07/22 02:53:50;;;;;;;8.23;6.82;;;15.10;99.90;;;;;;5004435;28;20034;-78
2023/07/22 02:56:16;;;;;;;8.77;6.80;;;15.10;99.90;;;;;;5004564;28;20355;-78
2023/07/22 02:58:42;;;;;;;9.60;6.95;;;15.10;99.90;;;;;;5003761;28;20026;-78
2023/07/22 03:01:08;;;;;;;9.38;7.72;;;15.10;99.90;;;;;;5002224;28;20034;-78
2023/07/22 03:03:34;;;;;;;10.75;8.13;;;15.10;99.90;;;;;;5007782;28;20371;-79
2023/07/22 03:06:01;;;;;;;13.60;8.43;;;15.10;99.90;;;;;;5010923;28;20467;-79
2023/07/22 03:08:27;;;;;;;12.00;8.98;;;15.10;99.90;;;;;;5010581;28;20442;-77
2023/07/22 03:10:52;;;;;;;11.05;8.20;;;15.20;99.90;;;;;;5008398;28;20046;-78
2023/07/22 03:13:18;;;;;;;12.60;9.65;;;15.20;99.90;;;;;;5011159;28;20479;-78
2023/07/22 03:15:44;;;;;;;12.38;8.63;;;15.20;99.90;;;;;;5009179;28;20061;-77
2023/07/22 03:18:10;;;;;;;11.70;8.50;;;15.20;99.90;;;;;;5007858;28;20459;-78
2023/07/22 03:20:39;;;;;;;13.18;9.52;;;15.20;99.90;;;;;;5010995;28;20467;-77
2023/07/22 03:23:06;;;;;;;16.23;10.18;;;15.30;99.90;;;;;;5011720;28;20045;-78
2023/07/22 03:25:32;;;;;;;13.68;10.15;;;15.40;99.90;;;;;;5005428;28;20022;-78
2023/07/22 03:28:03;;;;;;;11.88;9.45;;;15.30;99.90;;;;;;5000757;28;20014;-78
2023/07/22 03:30:29;;;;;;;13.70;10.38;;;15.40;99.90;;;;;;5003181;28;20476;-78
2023/07/22 03:32:55;;;;;;;13.10;11.30;;;15.40;99.90;;;;;;5000675;28;20038;-78
2023/07/22 03:35:20;;;;;;;13.70;10.15;;;15.40;99.90;;;;;;5008209;28;20018;-78
2023/07/22 03:37:46;;;;;;;13.50;10.73;;;15.40;99.90;;;;;;5007056;28;20018;-78
2023/07/22 03:40:17;;;;;;;15.60;11.23;;;15.50;99.90;;;;;;5009367;28;20116;-78
2023/07/22 03:42:43;;;;;;;13.35;9.88;;;15.50;99.90;;;;;;5004603;28;20033;-78
2023/07/22 03:45:12;;;;;;;15.18;11.00;;;15.50;99.90;;;;;;5009591;28;20018;-77
2023/07/22 03:47:39;;;;;;;16.00;12.80;;;15.50;99.90;;;;;;5026622;28;20035;-78
2023/07/22 03:50:05;;;;;;;12.77;11.20;;;15.50;99.90;;;;;;5006936;28;20065;-78
2023/07/22 03:52:31;;;;;;;15.52;12.82;;;15.50;99.90;;;;;;5001316;28;20409;-78
2023/07/22 03:54:57;;;;;;;16.80;12.70;;;15.40;99.90;;;;;;5002648;28;20083;-77
2023/07/22 03:57:26;;;;;;;18.15;13.10;;;15.40;99.90;;;;;;5003067;28;20025;-78
2023/07/22 03:59:54;;;;;;;18.95;14.90;;;15.50;99.90;;;;;;5004119;28;20026;-78
2023/07/22 04:02:19;;;;;;;18.23;15.30;;;15.50;99.90;;;;;;5008989;28;20018;-77
2023/07/22 04:04:45;;;;;;;20.17;15.73;;;15.50;99.90;;;;;;4995829;28;20079;-78
2023/07/22 04:07:10;;;;;;;21.90;16.98;;;15.50;99.90;;;;;;5008875;28;20098;-78
2023/07/22 04:09:36;;;;;;;21.33;16.48;;;15.50;99.90;;;;;;4997659;28;20056;-77
2023/07/22 04:12:02;;;;;;;23.67;17.88;;;15.50;99.90;;;;;;5001872;28;20018;-78
2023/07/22 04:14:27;;;;;;;23.88;17.95;;;15.50;99.90;;;;;;5006084;28;20493;-78
2023/07/22 04:16:53;;;;;;;26.13;19.08;;;15.50;99.90;;;;;;5011178;28;20391;-78
2023/07/22 04:19:18;;;;;;;24.23;19.20;;;15.60;99.90;;;;;;5010119;28;20451;-78
2023/07/22 04:21:44;;;;;;;30.13;21.40;;;15.60;99.90;;;;;;5000397;28;20024;-78
2023/07/22 04:24:10;;;;;;;33.25;22.65;;;15.60;99.90;;;;;;5003960;28;20034;-79
2023/07/22 04:26:36;;;;;;;33.35;24.52;;;15.60;99.90;;;;;;5001579;28;20025;-79
2023/07/22 04:29:01;;;;;;;33.90;24.75;;;15.60;99.90;;;;;;5008456;28;20018;-78
2023/07/22 04:31:27;;;;;;;34.08;24.92;;;15.60;99.90;;;;;;5009355;28;20021;-78
2023/07/22 04:33:52;;;;;;;42.92;25.67;;;15.70;99.90;;;;;;5009176;28;20055;-77
2023/07/22 04:36:18;;;;;;;37.65;24.75;;;15.70;99.90;;;;;;5008174;28;20466;-78
2023/07/22 04:38:43;;;;;;;34.75;25.15;;;15.70;99.90;;;;;;5010285;28;20030;-78
2023/07/22 04:41:09;;;;;;;33.60;24.15;;;15.70;99.90;;;;;;5002781;28;20041;-78
2023/07/22 04:43:35;;;;;;;32.55;21.25;;;15.70;99.90;;;;;;5003954;28;20021;-78
2023/07/22 04:46:00;;;;;;;29.98;22.08;;;15.70;99.90;;;;;;5009378;28;20022;-77
2023/07/22 04:48:26;;;;;;;36.10;24.83;;;15.80;99.90;;;;;;5010148;28;20018;-78
2023/07/22 04:50:52;;;;;;;31.70;24.10;;;15.70;99.90;;;;;;5004078;28;20109;-79
2023/07/22 04:53:18;;;;;;;36.88;25.58;;;15.80;99.90;;;;;;5009717;28;20031;-78
2023/07/22 04:55:43;;;;;;;34.42;24.38;;;15.80;99.90;;;;;;5005749;28;20037;-79
2023/07/22 04:58:10;;;;;;;32.00;23.38;;;15.90;99.90;;;;;;5001964;28;20024;-79
2023/07/22 05:00:37;;;;;;;28.50;22.45;;;15.90;99.90;;;;;;4999752;28;20048;-78
2023/07/22 05:03:03;;;;;;;33.13;23.33;;;15.90;99.90;;;;;;5001809;28;20025;-78
2023/07/22 05:05:29;;;;;;;33.35;22.67;;;15.90;99.90;;;;;;4998563;28;20033;-78
2023/07/22 05:07:54;;;;;;;30.98;24.27;;;15.90;99.90;;;;;;5009743;28;20394;-79
2023/07/22 05:10:20;;;;;;;24.52;21.00;;;15.90;99.90;;;;;;5007229;28;20022;-78
2023/07/22 05:12:46;;;;;;;25.67;21.90;;;15.90;99.90;;;;;;5009214;28;20038;-79
2023/07/22 05:15:13;;;;;;;29.50;22.33;;;16.00;99.90;;;;;;5007832;28;20022;-79
2023/07/22 05:17:39;;;;;;;27.58;21.83;;;16.00;99.90;;;;;;5007190;28;20026;-78
2023/07/22 05:20:12;;;;;;;29.77;22.20;;;16.00;99.90;;;;;;5008567;28;20026;-78
2023/07/22 05:22:41;;;;;;;29.92;22.33;;;16.00;99.90;;;;;;5008998;28;20026;-79
2023/07/22 05:25:07;;;;;;;29.48;21.83;;;16.00;99.90;;;;;;5008358;28;20406;-79
2023/07/22 05:27:33;;;;;;;25.60;19.77;;;16.00;99.90;;;;;;4996459;28;20525;-78
2023/07/22 05:29:59;;;;;;;24.95;20.83;;;16.00;99.90;;;;;;5004822;28;20037;-79
2023/07/22 05:32:26;;;;;;;25.25;20.10;;;16.00;99.90;;;;;;5008107;28;20514;-78
2023/07/22 05:34:51;;;;;;;24.77;20.42;;;16.00;99.90;;;;;;5005238;28;20034;-78
2023/07/22 05:37:17;;;;;;;24.80;20.55;;;16.00;99.90;;;;;;5005135;28;20474;-78
2023/07/22 05:39:42;;;;;;;25.42;18.92;;;16.00;99.90;;;;;;5007356;28;20033;-79
2023/07/22 05:42:08;;;;;;;24.30;19.25;;;16.00;99.90;;;;;;5009108;28;20031;-79
2023/07/22 05:44:34;;;;;;;23.00;18.75;;;16.00;99.90;;;;;;5007793;28;20018;-78
2023/07/22 05:46:59;;;;;;;21.95;17.75;;;16.00;99.90;;;;;;5003659;28;20026;-77
2023/07/22 05:49:25;;;;;;;22.55;18.05;;;16.10;99.90;;;;;;5009554;28;20507;-78
2023/07/22 05:51:50;;;;;;;21.00;18.00;;;16.20;99.90;;;;;;5010871;28;20026;-78
2023/07/22 05:54:16;;;;;;;19.85;16.42;;;16.20;99.90;;;;;;5011480;28;20045;-78
2023/07/22 05:56:42;;;;;;;22.00;18.30;;;16.30;99.90;;;;;;5012014;28;20025;-78
2023/07/22 05:59:08;;;;;;;18.90;15.85;;;16.30;99.90;;;;;;5012139;28;20375;-77
2023/07/22 06:01:34;;;;;;;17.70;15.80;;;16.30;99.90;;;;;;5010538;28;20014;-78
2023/07/22 06:04:00;;;;;;;19.60;15.73;;;16.30;99.90;;;;;;5009331;28;20434;-78
2023/07/22 06:06:25;;;;;;;34.83;29.67;;;16.30;99.90;;;;;;5007954;28;20019;-78
2023/07/22 06:08:51;;;;;;;25.15;18.38;;;16.30;99.90;;;;;;5008518;28;20372;-78
2023/07/22 06:11:17;;;;;;;17.40;14.80;;;16.20;99.90;;;;;;5009706;28;20464;-78
2023/07/22 06:13:43;;;;;;;18.08;16.05;;;16.20;99.90;;;;;;5009877;28;20124;-78
2023/07/22 06:16:08;;;;;;;23.55;18.90;;;16.30;99.90;;;;;;5011191;28;20105;-78
2023/07/22 06:18:34;;;;;;;21.20;15.60;;;16.40;99.90;;;;;;5011958;28;20024;-78
2023/07/22 06:20:59;;;;;;;16.48;14.20;;;16.40;99.90;;;;;;5004901;28;20098;-78
2023/07/22 06:23:25;;;;;;;16.50;14.75;;;16.30;99.90;;;;;;5008443;28;20022;-77
2023/07/22 06:25:50;;;;;;;16.55;13.48;;;16.40;99.90;;;;;;5012555;28;20029;-78
2023/07/22 06:28:16;;;;;;;16.42;13.95;;;16.50;99.90;;;;;;5010907;28;20083;-78
2023/07/22 06:30:41;;;;;;;15.50;12.77;;;16.60;99.90;;;;;;5002754;28;20073;-78
2023/07/22 06:33:07;;;;;;;15.20;12.60;;;16.90;99.90;;;;;;5006858;28;20046;-78
2023/07/22 06:35:33;;;;;;;14.18;12.75;;;17.10;99.90;;;;;;5010285;28;20022;-79
2023/07/22 06:37:58;;;;;;;12.82;9.95;;;17.40;99.90;;;;;;5010387;28;20030;-80
2023/07/22 06:40:25;;;;;;;10.77;8.73;;;17.60;99.90;;;;;;5009324;28;20030;-80
2023/07/22 06:42:50;;;;;;;11.07;7.97;;;17.60;99.90;;;;;;5008805;28;20099;-80
2023/07/22 06:45:17;;;;;;;8.25;7.25;;;17.30;99.90;;;;;;4996060;28;20067;-79
2023/07/22 06:47:43;;;;;;;9.02;8.13;;;17.60;99.90;;;;;;5001169;28;20010;-80
2023/07/22 06:50:09;;;;;;;9.02;7.93;;;17.80;99.90;;;;;;5004304;28;20046;-79
2023/07/22 06:52:35;;;;;;;8.77;7.07;;;17.90;99.90;;;;;;4998729;28;20061;-79
2023/07/22 06:55:01;;;;;;;7.65;6.88;;;17.80;99.90;;;;;;4999719;28;20037;-80
2023/07/22 06:57:26;;;;;;;7.78;6.47;;;17.90;99.90;;;;;;5002276;28;20030;-80
2023/07/22 06:59:55;;;;;;;6.68;6.07;;;18.10;99.90;;;;;;5005074;28;20022;-79
2023/07/22 07:02:21;;;;;;;7.28;6.00;;;18.10;99.90;;;;;;5004148;28;20014;-79
2023/07/22 07:04:47;;;;;;;8.38;5.75;;;18.20;99.90;;;;;;5005636;28;20034;-79
2023/07/22 07:07:13;;;;;;;7.47;5.93;;;18.30;99.90;;;;;;5003669;28;20071;-80
2023/07/22 07:09:39;;;;;;;5.53;5.00;;;18.40;99.90;;;;;;5003800;28;21286;-80
2023/07/22 07:12:05;;;;;;;6.35;5.68;;;18.50;99.90;;;;;;4999530;28;20037;-80
2023/07/22 07:14:30;;;;;;;5.40;4.88;;;18.70;99.90;;;;;;5021485;28;20121;-80
2023/07/22 07:16:56;;;;;;;5.47;4.97;;;18.80;99.90;;;;;;5003221;28;20117;-79
2023/07/22 07:19:21;;;;;;;5.30;4.80;;;18.60;99.90;;;;;;4999335;28;20058;-79
2023/07/22 07:21:47;;;;;;;6.30;5.18;;;18.70;99.90;;;;;;5003166;28;20049;-80
2023/07/22 07:24:13;;;;;;;5.53;4.65;;;18.80;99.90;;;;;;4999776;28;20434;-80
2023/07/22 07:26:39;;;;;;;5.20;4.70;;;18.80;99.90;;;;;;4999914;28;20474;-79
2023/07/22 07:29:04;;;;;;;5.68;4.70;;;18.80;99.90;;;;;;4996868;28;20057;-79
2023/07/22 07:31:30;;;;;;;5.13;4.60;;;18.70;99.90;;;;;;5003795;28;20053;-79
2023/07/22 07:33:55;;;;;;;5.53;5.03;;;18.70;99.90;;;;;;4995632;28;20041;-79
2023/07/22 07:36:21;;;;;;;5.13;4.63;;;18.60;99.90;;;;;;5005164;28;20034;-80
2023/07/22 07:38:47;;;;;;;5.45;4.53;;;18.60;99.90;;;;;;5003936;28;20075;-79
2023/07/22 07:41:12;;;;;;;4.85;4.20;;;18.70;99.90;;;;;;5007234;28;20083;-79
2023/07/22 07:43:40;;;;;;;6.35;5.32;;;19.10;99.90;;;;;;5003327;28;20079;-79
2023/07/22 07:46:14;;;;;;;5.32;4.57;;;19.40;99.90;;;;;;4999987;28;20039;-79
2023/07/22 07:48:40;;;;;;;5.30;4.80;;;19.40;99.90;;;;;;4960077;28;1197849;-80
2023/07/22 07:51:06;;;;;;;5.95;4.65;;;19.60;99.90;;;;;;5005798;28;20095;-79
2023/07/22 07:53:31;;;;;;;6.07;4.80;;;19.70;98.80;;;;;;5004139;28;20034;-80
2023/07/22 07:55:57;;;;;;;4.90;4.47;;;20.00;96.80;;;;;;5002778;28;20514;-79
2023/07/22 07:58:23;;;;;;;6.00;4.68;;;19.90;94.30;;;;;;5007785;28;20406;-79
2023/07/22 08:00:48;;;;;;;5.40;4.50;;;20.00;85.30;;;;;;4999523;28;20532;-79
2023/07/22 08:03:14;;;;;;;4.40;4.00;;;19.90;84.60;;;;;;4996548;28;20030;-79
2023/07/22 08:05:40;;;;;;;5.45;4.63;;;19.40;85.60;;;;;;5000249;28;20083;-79
2023/07/22 08:08:05;;;;;;;4.72;3.80;;;19.50;89.00;;;;;;5006384;28;20025;-79
2023/07/22 08:10:31;;;;;;;4.28;3.88;;;19.50;95.00;;;;;;5001110;28;20036;-79
2023/07/22 08:12:57;;;;;;;4.03;3.63;;;19.50;85.10;;;;;;5002943;28;20133;-79
2023/07/22 08:15:23;;;;;;;3.95;3.40;;;19.80;82.50;;;;;;5006335;28;20105;-79
2023/07/22 08:17:48;;;;;;;3.85;3.10;;;19.90;79.30;;;;;;5000862;28;20090;-79
2023/07/22 08:20:14;;;;;;;3.35;2.85;;;20.30;81.80;;;;;;5005127;28;20018;-79
2023/07/22 08:22:40;;;;;;;4.43;3.25;;;20.40;79.80;;;;;;5001350;28;20551;-79
2023/07/22 08:25:05;;;;;;;3.22;3.03;;;20.40;80.30;;;;;;4998689;28;20111;-80
2023/07/22 08:27:31;;;;;;;3.65;2.75;;;20.40;79.80;;;;;;5004429;28;20038;-79
2023/07/22 08:29:57;;;;;;;3.22;2.50;;;20.40;77.40;;;;;;4997983;28;20570;-80
2023/07/22 08:32:22;;;;;;;2.60;2.25;;;20.80;77.50;;;;;;5002502;28;20026;-80
2023/07/22 08:34:48;;;;;;;3.30;2.72;;;20.70;69.80;;;;;;5006122;28;20099;-80
2023/07/22 08:37:13;;;;;;;2.80;2.60;;;20.70;71.00;;;;;;5005023;28;20057;-80
2023/07/22 08:39:39;;;;;;;2.95;2.67;;;20.20;69.60;;;;;;5007137;28;20487;-80
2023/07/22 08:42:06;;;;;;;3.22;2.80;;;20.30;71.80;;;;;;5007647;28;20026;-80
2023/07/22 08:44:36;;;;;;;3.38;2.90;;;20.50;72.50;;;;;;5001792;28;20026;-80
2023/07/22 08:47:03;;;;;;;3.30;2.80;;;20.50;73.50;;;;;;5004300;28;20063;-80
2023/07/22 08:49:30;;;;;;;2.85;2.47;;;20.50;74.10;;;;;;5006116;28;20099;-80
2023/07/22 08:51:57;;;;;;;3.17;2.65;;;20.50;75.50;;;;;;5003205;28;20022;-79
2023/07/22 08:54:23;;;;;;;3.90;2.38;;;20.60;72.90;;;;;;5006185;28;20082;-79
2023/07/22 08:56:50;;;;;;;3.20;2.50;;;20.80;69.10;;;;;;5008443;28;20106;-80
2023/07/22 08:59:17;;;;;;;3.88;2.25;;;21.20;69.50;;;;;;5006484;28;20498;-80
2023/07/22 09:01:44;;;;;;;6.97;2.83;;;21.30;69.10;;;;;;5005377;28;20010;-80
2023/07/22 09:04:09;;;;;;;3.30;2.35;;;21.30;67.30;;;;;;5002665;28;20062;-79
2023/07/22 09:06:35;;;;;;;3.50;2.53;;;21.30;67.30;;;;;;5002825;28;20114;-80
2023/07/22 09:09:06;;;;;;;2.45;2.13;;;20.90;67.90;;;;;;5008058;28;20036;-79
2023/07/22 09:11:33;;;;;;;4.10;2.58;;;21.00;68.90;;;;;;5010057;28;20022;-80
2023/07/22 09:13:59;;;;;;;2.67;2.47;;;21.20;69.30;;;;;;5010118;28;20108;-80
2023/07/22 09:16:27;;;;;;;2.50;2.30;;;21.50;68.80;;;;;;5008921;28;20097;-80
2023/07/22 09:18:55;;;;;;;3.15;2.40;;;20.90;67.20;;;;;;5009702;28;20153;-79
2023/07/22 09:21:21;;;;;;;5.07;2.78;;;20.70;68.90;;;;;;4996655;28;20049;-80
2023/07/22 09:23:47;;;;;;;3.00;2.22;;;20.50;69.70;;;;;;5007574;28;20049;-78
2023/07/22 09:26:14;;;;;;;2.00;1.90;;;20.50;69.30;;;;;;5007505;28;20662;-80
2023/07/22 09:28:57;;;;;;;2.55;2.30;;;20.50;69.10;;;;;;5007366;28;20125;-80
2023/07/22 09:31:25;;;;;;;2.70;2.28;;;20.90;68.00;;;;;;5007508;28;20036;-79
2023/07/22 09:33:54;;;;;;;2.90;2.28;;;21.20;67.10;;;;;;5008546;28;20037;-80
2023/07/22 09:36:19;;;;;;;4.30;2.45;;;21.40;67.70;;;;;;5009981;28;20022;-80
2023/07/22 09:38:45;;;;;;;2.60;2.40;;;21.20;68.60;;;;;;5008619;28;20335;-80
2023/07/22 09:41:13;;;;;;;2.83;2.20;;;20.80;67.80;;;;;;5009688;28;20026;-80
2023/07/22 09:43:39;;;;;;;5.10;2.25;;;20.70;69.70;;;;;;5004190;28;20113;-78
2023/07/22 09:46:09;;;;;;;2.53;2.17;;;20.70;69.50;;;;;;5008658;28;20075;-78
2023/07/22 09:48:42;;;;;;;3.28;1.77;;;20.80;68.60;;;;;;5008249;28;20033;-78
2023/07/22 09:51:13;;;;;;;1.60;1.50;;;21.20;68.80;;;;;;4997192;28;20049;-79
2023/07/22 09:53:44;;;;;;;7.07;3.97;;;21.50;66.80;;;;;;5001620;28;20496;-78
2023/07/22 09:56:10;;;;;;;14.20;9.03;;;21.80;64.70;;;;;;5002127;28;20037;-79
2023/07/22 09:58:37;;;;;;;44.95;26.02;;;22.10;64.50;;;;;;5005286;28;20026;-79
2023/07/22 10:01:04;;;;;;;17.13;10.80;;;22.00;62.50;;;;;;5007872;28;20014;-79
2023/07/22 10:03:32;;;;;;;12.23;10.48;;;21.70;62.40;;;;;;5006046;28;20030;-78
2023/07/22 10:06:03;;;;;;;5.35;3.40;;;21.90;63.00;;;;;;5009448;28;20018;-78
2023/07/22 10:08:33;;;;;;;3.13;2.40;;;22.10;61.70;;;;;;5008300;28;20030;-78
2023/07/22 10:11:03;;;;;;;8.82;4.55;;;22.00;61.10;;;;;;5002597;28;20018;-79
2023/07/22 10:13:28;;;;;;;3.97;2.67;;;22.10;63.20;;;;;;5003097;28;20437;-79
2023/07/22 10:15:54;;;;;;;4.05;2.30;;;21.90;63.50;;;;;;5002252;28;20025;-79
2023/07/22 10:18:22;;;;;;;2.63;2.33;;;21.60;64.30;;;;;;4996417;28;20021;-79
2023/07/22 10:20:49;;;;;;;2.35;2.15;;;21.90;63.60;;;;;;4993094;28;20117;-79
2023/07/22 10:23:15;;;;;;;4.50;2.50;;;22.20;64.10;;;;;;5000529;28;20026;-79
2023/07/22 10:25:42;;;;;;;3.13;2.50;;;21.90;63.20;;;;;;4997227;28;20019;-79
2023/07/22 10:28:08;;;;;;;5.93;3.20;;;21.50;63.50;;;;;;4999291;28;20029;-79
2023/07/22 10:30:34;;;;;;;4.13;2.75;;;21.90;65.10;;;;;;5002084;28;20022;-78
2023/07/22 10:32:59;;;;;;;3.03;2.25;;;22.20;64.30;;;;;;5000938;28;20117;-78
2023/07/22 10:35:31;;;;;;;4.68;3.30;;;22.40;60.40;;;;;;5002143;28;20030;-78
2023/07/22 10:38:17;;;;;;;6.05;2.70;;;22.70;60.50;;;;;;5009715;28;20030;-79
2023/07/22 10:40:53;;;;;;;2.40;2.20;;;22.80;59.60;;;;;;5010827;28;20117;-78
2023/07/22 10:43:26;;;;;;;3.05;2.25;;;22.90;57.80;;;;;;5004626;28;20057;-78
2023/07/22 10:46:10;;;;;;;4.32;2.97;;;22.50;57.90;;;;;;5009893;28;20014;-77
2023/07/22 10:48:38;;;;;;;8.63;3.58;;;22.10;58.70;;;;;;5009390;28;20053;-77
2023/07/22 10:51:07;;;;;;;6.00;3.70;;;22.30;60.10;;;;;;5009453;28;20052;-78
2023/07/22 10:53:45;;;;;;;4.13;2.20;;;22.60;60.10;;;;;;5009219;28;20045;-78
2023/07/22 10:56:21;;;;;;;3.20;2.55;;;22.90;59.00;;;;;;5010866;28;20029;-78
2023/07/22 10:58:47;;;;;;;4.90;2.60;;;23.00;55.70;;;;;;5010603;28;20022;-78
2023/07/22 11:01:27;;;;;;;2.47;1.70;;;23.10;56.20;;;;;;5010646;28;20025;-78
2023/07/22 11:04:06;;;;;;;3.30;1.70;;;22.80;55.60;;;;;;5008150;28;20491;-78
2023/07/22 11:06:32;;;;;;;4.07;2.58;;;22.60;55.90;;;;;;5001987;28;20056;-79
2023/07/22 11:08:58;;;;;;;2.35;2.15;;;22.40;57.40;;;;;;5005039;28;20029;-78
2023/07/22 11:11:38;;;;;;;2.67;1.92;;;22.10;57.90;;;;;;5004673;28;20109;-78
2023/07/22 11:14:18;;;;;;;2.70;1.90;;;22.00;58.70;;;;;;5004407;28;20391;-78
2023/07/22 11:16:45;;;;;;;4.97;2.80;;;22.30;57.30;;;;;;5002127;28;20030;-78
2023/07/22 11:19:13;;;;;;;6.30;2.63;;;22.80;58.60;;;;;;5008602;28;20032;-78
2023/07/22 11:21:38;;;;;;;2.83;2.63;;;23.10;58.10;;;;;;4998430;28;20533;-78
2023/07/22 11:24:05;;;;;;;4.35;2.70;;;23.30;57.40;;;;;;4999420;28;20014;-78
2023/07/22 11:26:31;;;;;;;4.20;2.70;;;23.50;56.20;;;;;;5005879;28;20459;-78
2023/07/22 11:28:57;;;;;;;4.28;2.28;;;23.60;55.50;;;;;;5018559;28;20030;-79
2023/07/22 11:31:31;;;;;;;2.50;1.65;;;23.60;55.90;;;;;;5001657;28;20548;-78
2023/07/22 11:33:57;;;;;;;2.40;2.25;;;23.30;53.90;;;;;;5007242;28;20580;-79
2023/07/22 11:36:23;;;;;;;2.00;1.83;;;23.50;55.30;;;;;;5001984;28;20037;-78
2023/07/22 11:38:48;;;;;;;2.78;2.30;;;23.50;55.90;;;;;;5005203;28;20027;-78
2023/07/22 11:41:14;;;;;;;3.05;1.70;;;23.40;55.40;;;;;;5003710;28;20383;-79
2023/07/22 11:43:40;;;;;;;2.08;1.98;;;23.00;55.70;;;;;;5012297;28;20041;-79
2023/07/22 11:46:06;;;;;;;3.38;2.13;;;22.90;57.40;;;;;;5005416;28;20560;-79
2023/07/22 11:48:32;;;;;;;4.05;2.03;;;22.70;58.60;;;;;;5004801;28;20029;-78
2023/07/22 11:51:01;;;;;;;1.98;1.88;;;22.60;58.10;;;;;;5007474;28;20104;-78
2023/07/22 11:53:27;;;;;;;2.90;2.55;;;22.70;56.90;;;;;;5000900;28;20034;-78
2023/07/22 11:55:55;;;;;;;2.08;1.90;;;22.80;56.40;;;;;;5003617;28;20413;-77
2023/07/22 11:58:28;;;;;;;2.88;2.25;;;22.70;56.70;;;;;;4999059;28;20152;-78
2023/07/22 12:01:10;;;;;;;2.35;2.15;;;22.50;56.80;;;;;;5001833;28;20450;-77
2023/07/22 12:03:35;;;;;;;3.35;2.30;;;22.50;58.40;;;;;;5002448;28;20118;-77
2023/07/22 12:06:06;;;;;;;2.83;2.40;;;22.70;58.20;;;;;;4984447;28;20025;-77
2023/07/22 12:08:33;;;;;;;6.80;2.55;;;23.10;58.80;;;;;;5000804;28;20018;-78
2023/07/22 12:10:59;;;;;;;2.05;1.85;;;23.10;58.20;;;;;;4998725;28;20042;-77
2023/07/22 12:13:25;;;;;;;2.25;2.00;;;23.30;58.10;;;;;;4999996;28;20484;-77
2023/07/22 12:16:05;;;;;;;3.97;2.00;;;22.90;56.30;;;;;;5002435;28;20101;-77
2023/07/22 12:18:47;;;;;;;4.15;2.60;;;23.00;56.80;;;;;;5000185;28;20429;-77
2023/07/22 12:21:13;;;;;;;5.82;2.35;;;23.40;58.20;;;;;;4991805;28;20054;-79
2023/07/22 12:23:41;;;;;;;2.10;1.88;;;23.30;55.90;;;;;;5007038;28;20026;-78
2023/07/22 12:26:06;;;;;;;3.92;2.63;;;23.30;54.70;;;;;;5004351;28;20022;-78
2023/07/22 12:28:32;;;;;;;2.13;1.92;;;23.20;55.40;;;;;;5002741;28;20018;-77
2023/07/22 12:30:57;;;;;;;3.83;2.28;;;23.30;55.70;;;;;;5001459;28;20018;-77
2023/07/22 12:33:24;;;;;;;3.33;1.85;;;23.50;56.20;;;;;;5005894;28;20037;-78
2023/07/22 12:35:50;;;;;;;3.03;2.28;;;23.60;55.50;;;;;;5000778;28;20102;-77
2023/07/22 12:38:15;;;;;;;2.28;2.08;;;23.60;55.50;;;;;;5000223;28;20097;-78